Inchelium, Washington
Current Conditions -  °F | °C
As of 2:23 PM on Friday 31 Oct 2014 (Local Time) from KDEW Reporting Station
Haze Haze  
Wind Chill: 49°   Ceiling: 800
Heat Index: 49°   Visibility: 5mi
Dew Point: 47°   Wind: 3mph
Humidity: 93%   Direction: 270°W
Pressure: 29.78"   Gusts: NA
Location:  48.34°N, 118.25°W
Report Text: KDEW 312123Z AUTO 27003KT 5SM BR OVC008 09/08 A2978 RMK AO2 RAE2056 CIG 004V012 P0001 T00940083
Loading
Personal Weather Stations






























Interactive Weather Map New forecast layout! Learn more

10-Day Weather Forecast

Advertisements
Track Severe Weather on mobile